sensor_id;sensor_type;location;lat;lon;timestamp;pressure;altitude;pressure_sealevel;temperature;humidity
75008;BME280;63554;48.940;12.050;2023-11-19T00:03:50;97519.28;;;3.28;100.00
75008;BME280;63554;48.940;12.050;2023-11-19T00:07:55;97502.41;;;3.28;100.00
75008;BME280;63554;48.940;12.050;2023-11-19T00:11:59;97486.19;;;3.29;100.00
75008;BME280;63554;48.940;12.050;2023-11-19T00:16:04;97481.50;;;3.31;100.00
75008;BME280;63554;48.940;12.050;2023-11-19T00:20:10;97473.81;;;3.28;100.00
75008;BME280;63554;48.940;12.050;2023-11-19T00:24:13;97469.78;;;3.32;100.00
75008;BME280;63554;48.940;12.050;2023-11-19T00:28:17;97457.06;;;3.34;100.00
75008;BME280;63554;48.940;12.050;2023-11-19T00:32:22;97456.25;;;3.34;100.00
75008;BME280;63554;48.940;12.050;2023-11-19T00:36:25;97458.75;;;3.35;100.00
75008;BME280;63554;48.940;12.050;2023-11-19T00:40:28;97448.38;;;3.32;100.00
75008;BME280;63554;48.940;12.050;2023-11-19T00:44:37;97447.69;;;3.39;100.00
75008;BME280;63554;48.940;12.050;2023-11-19T00:48:53;97429.31;;;3.35;100.00
75008;BME280;63554;48.940;12.050;2023-11-19T00:52:56;97430.81;;;3.38;100.00
75008;BME280;63554;48.940;12.050;2023-11-19T00:56:59;97424.16;;;3.34;100.00
75008;BME280;63554;48.940;12.050;2023-11-19T01:01:03;97426.66;;;3.35;100.00
75008;BME280;63554;48.940;12.050;2023-11-19T01:05:09;97414.94;;;3.36;100.00
75008;BME280;63554;48.940;12.050;2023-11-19T01:09:16;97422.78;;;3.38;100.00
75008;BME280;63554;48.940;12.050;2023-11-19T01:13:18;97419.28;;;3.38;100.00
75008;BME280;63554;48.940;12.050;2023-11-19T01:17:21;97409.75;;;3.35;100.00
75008;BME280;63554;48.940;12.050;2023-11-19T01:21:26;97396.22;;;3.36;100.00
75008;BME280;63554;48.940;12.050;2023-11-19T01:25:29;97404.41;;;3.35;100.00
75008;BME280;63554;48.940;12.050;2023-11-19T01:29:32;97398.22;;;3.34;100.00
75008;BME280;63554;48.940;12.050;2023-11-19T01:33:35;97396.56;;;3.33;100.00
75008;BME280;63554;48.940;12.050;2023-11-19T01:37:40;97400.06;;;3.34;100.00
75008;BME280;63554;48.940;12.050;2023-11-19T01:41:43;97387.88;;;3.31;100.00
75008;BME280;63554;48.940;12.050;2023-11-19T01:45:46;97383.38;;;3.32;100.00
75008;BME280;63554;48.940;12.050;2023-11-19T01:49:48;97389.38;;;3.34;100.00
75008;BME280;63554;48.940;12.050;2023-11-19T01:53:53;97380.69;;;3.32;100.00
75008;BME280;63554;48.940;12.050;2023-11-19T01:57:59;97380.53;;;3.33;100.00
75008;BME280;63554;48.940;12.050;2023-11-19T02:02:03;97377.34;;;3.30;100.00
75008;BME280;63554;48.940;12.050;2023-11-19T02:06:07;97372.84;;;3.30;100.00
75008;BME280;63554;48.940;12.050;2023-11-19T02:10:13;97369.16;;;3.31;100.00
75008;BME280;63554;48.940;12.050;2023-11-19T02:14:18;97369.16;;;3.31;100.00
75008;BME280;63554;48.940;12.050;2023-11-19T02:18:23;97359.28;;;3.32;100.00
75008;BME280;63554;48.940;12.050;2023-11-19T02:22:29;97337.41;;;3.28;100.00
75008;BME280;63554;48.940;12.050;2023-11-19T02:26:39;97349.78;;;3.29;100.00
75008;BME280;63554;48.940;12.050;2023-11-19T02:30:43;97339.56;;;3.33;100.00
75008;BME280;63554;48.940;12.050;2023-11-19T02:34:46;97329.72;;;3.33;100.00
75008;BME280;63554;48.940;12.050;2023-11-19T02:38:49;97314.31;;;3.35;100.00
75008;BME280;63554;48.940;12.050;2023-11-19T02:42:52;97299.91;;;3.36;100.00
75008;BME280;63554;48.940;12.050;2023-11-19T02:46:57;97298.91;;;3.38;100.00
75008;BME280;63554;48.940;12.050;2023-11-19T02:51:01;97295.41;;;3.37;100.00
75008;BME280;63554;48.940;12.050;2023-11-19T02:55:05;97298.28;;;3.35;100.00
75008;BME280;63554;48.940;12.050;2023-11-19T02:59:11;97294.75;;;3.35;100.00
75008;BME280;63554;48.940;12.050;2023-11-19T03:03:29;97293.25;;;3.32;100.00
75008;BME280;63554;48.940;12.050;2023-11-19T03:07:41;97289.88;;;3.39;100.00
75008;BME280;63554;48.940;12.050;2023-11-19T03:11:45;97282.38;;;3.34;100.00
75008;BME280;63554;48.940;12.050;2023-11-19T03:15:48;97285.88;;;3.34;100.00
75008;BME280;63554;48.940;12.050;2023-11-19T03:19:52;97281.19;;;3.36;100.00
75008;BME280;63554;48.940;12.050;2023-11-19T03:23:55;97278.00;;;3.41;100.00
75008;BME280;63554;48.940;12.050;2023-11-19T03:27:57;97276.22;;;3.33;100.00
75008;BME280;63554;48.940;12.050;2023-11-19T03:32:00;97274.69;;;3.31;100.00
75008;BME280;63554;48.940;12.050;2023-11-19T03:36:05;97265.38;;;3.27;100.00
75008;BME280;63554;48.940;12.050;2023-11-19T03:40:10;97277.91;;;3.26;100.00
75008;BME280;63554;48.940;12.050;2023-11-19T03:44:13;97282.13;;;3.21;100.00
75008;BME280;63554;48.940;12.050;2023-11-19T03:48:15;97278.91;;;3.25;100.00
75008;BME280;63554;48.940;12.050;2023-11-19T03:52:20;97276.06;;;3.27;100.00
75008;BME280;63554;48.940;12.050;2023-11-19T03:56:23;97271.41;;;3.21;100.00
75008;BME280;63554;48.940;12.050;2023-11-19T04:00:26;97274.91;;;3.21;100.00
75008;BME280;63554;48.940;12.050;2023-11-19T04:04:29;97258.41;;;3.17;100.00
75008;BME280;63554;48.940;12.050;2023-11-19T04:08:33;97259.41;;;3.16;100.00
75008;BME280;63554;48.940;12.050;2023-11-19T04:12:37;97260.59;;;3.14;100.00
75008;BME280;63554;48.940;12.050;2023-11-19T04:16:40;97267.59;;;3.15;100.00
75008;BME280;63554;48.940;12.050;2023-11-19T04:20:42;97262.91;;;3.17;100.00
75008;BME280;63554;48.940;12.050;2023-11-19T04:24:47;97268.09;;;3.19;100.00
75008;BME280;63554;48.940;12.050;2023-11-19T04:28:49;97258.22;;;3.19;100.00
75008;BME280;63554;48.940;12.050;2023-11-19T04:32:52;97248.19;;;3.21;100.00
75008;BME280;63554;48.940;12.050;2023-11-19T04:36:55;97249.50;;;3.25;100.00
75008;BME280;63554;48.940;12.050;2023-11-19T04:40:59;97242.84;;;3.21;100.00
75008;BME280;63554;48.940;12.050;2023-11-19T04:45:03;97231.31;;;3.21;100.00
75008;BME280;63554;48.940;12.050;2023-11-19T04:49:07;97214.28;;;3.22;100.00
75008;BME280;63554;48.940;12.050;2023-11-19T04:53:12;97193.06;;;3.20;100.00
75008;BME280;63554;48.940;12.050;2023-11-19T04:57:17;97177.00;;;3.20;100.00
75008;BME280;63554;48.940;12.050;2023-11-19T05:01:20;97152.47;;;3.16;100.00
75008;BME280;63554;48.940;12.050;2023-11-19T05:05:23;97179.03;;;3.18;100.00
75008;BME280;63554;48.940;12.050;2023-11-19T05:09:26;97193.06;;;3.20;100.00
75008;BME280;63554;48.940;12.050;2023-11-19T05:13:30;97195.19;;;3.25;100.00
75008;BME280;63554;48.940;12.050;2023-11-19T05:17:33;97198.81;;;3.32;100.00
75008;BME280;63554;48.940;12.050;2023-11-19T05:21:38;97214.31;;;3.36;100.00
75008;BME280;63554;48.940;12.050;2023-11-19T05:25:41;97201.59;;;3.39;100.00
75008;BME280;63554;48.940;12.050;2023-11-19T05:29:45;97211.78;;;3.43;100.00
75008;BME280;63554;48.940;12.050;2023-11-19T05:33:48;97197.22;;;3.46;100.00
75008;BME280;63554;48.940;12.050;2023-11-19T05:37:51;97199.91;;;3.46;100.00
75008;BME280;63554;48.940;12.050;2023-11-19T05:41:53;97218.78;;;3.44;100.00
75008;BME280;63554;48.940;12.050;2023-11-19T05:45:58;97221.84;;;3.41;100.00
75008;BME280;63554;48.940;12.050;2023-11-19T05:50:00;97224.97;;;3.45;100.00
75008;BME280;63554;48.940;12.050;2023-11-19T05:54:04;97219.94;;;3.50;100.00
75008;BME280;63554;48.940;12.050;2023-11-19T05:58:08;97215.78;;;3.47;100.00
75008;BME280;63554;48.940;12.050;2023-11-19T06:02:14;97197.16;;;3.54;100.00
75008;BME280;63554;48.940;12.050;2023-11-19T06:06:17;97183.94;;;3.52;100.00
75008;BME280;63554;48.940;12.050;2023-11-19T06:10:20;97183.78;;;3.54;100.00
75008;BME280;63554;48.940;12.050;2023-11-19T06:14:23;97185.63;;;3.53;100.00
75008;BME280;63554;48.940;12.050;2023-11-19T06:18:27;97185.72;;;3.60;100.00
75008;BME280;63554;48.940;12.050;2023-11-19T06:22:30;97190.72;;;3.63;100.00
75008;BME280;63554;48.940;12.050;2023-11-19T06:26:33;97184.56;;;3.63;100.00
75008;BME280;63554;48.940;12.050;2023-11-19T06:30:36;97177.34;;;3.63;100.00
75008;BME280;63554;48.940;12.050;2023-11-19T06:34:41;97174.50;;;3.65;100.00
75008;BME280;63554;48.940;12.050;2023-11-19T06:38:44;97195.06;;;3.64;100.00
75008;BME280;63554;48.940;12.050;2023-11-19T06:42:49;97203.72;;;3.66;100.00
75008;BME280;63554;48.940;12.050;2023-11-19T06:46:54;97195.53;;;3.68;100.00
75008;BME280;63554;48.940;12.050;2023-11-19T06:50:59;97187.97;;;3.71;100.00
75008;BME280;63554;48.940;12.050;2023-11-19T06:55:01;97172.19;;;3.62;100.00
75008;BME280;63554;48.940;12.050;2023-11-19T06:59:08;97176.41;;;3.56;100.00
75008;BME280;63554;48.940;12.050;2023-11-19T07:03:11;97179.06;;;3.56;100.00
75008;BME280;63554;48.940;12.050;2023-11-19T07:07:16;97186.56;;;3.61;100.00
75008;BME280;63554;48.940;12.050;2023-11-19T07:11:19;97193.75;;;3.60;100.00
75008;BME280;63554;48.940;12.050;2023-11-19T07:15:21;97177.78;;;3.52;100.00
75008;BME280;63554;48.940;12.050;2023-11-19T07:19:24;97174.53;;;3.42;100.00
75008;BME280;63554;48.940;12.050;2023-11-19T07:23:28;97186.22;;;3.41;100.00
75008;BME280;63554;48.940;12.050;2023-11-19T07:27:31;97189.84;;;3.48;100.00
75008;BME280;63554;48.940;12.050;2023-11-19T07:31:34;97198.63;;;3.56;100.00
75008;BME280;63554;48.940;12.050;2023-11-19T07:35:38;97198.44;;;3.58;100.00
75008;BME280;63554;48.940;12.050;2023-11-19T07:39:44;97193.66;;;3.53;100.00
75008;BME280;63554;48.940;12.050;2023-11-19T07:43:46;97203.63;;;3.60;100.00
75008;BME280;63554;48.940;12.050;2023-11-19T07:47:50;97204.63;;;3.59;100.00
75008;BME280;63554;48.940;12.050;2023-11-19T07:51:53;97206.31;;;3.60;100.00
75008;BME280;63554;48.940;12.050;2023-11-19T07:55:57;97202.44;;;3.62;100.00
75008;BME280;63554;48.940;12.050;2023-11-19T08:00:01;97199.75;;;3.62;100.00
75008;BME280;63554;48.940;12.050;2023-11-19T08:04:05;97199.25;;;3.67;100.00
75008;BME280;63554;48.940;12.050;2023-11-19T08:08:08;97210.03;;;3.73;100.00
75008;BME280;63554;48.940;12.050;2023-11-19T08:12:12;97209.88;;;3.75;100.00
75008;BME280;63554;48.940;12.050;2023-11-19T08:16:16;97217.41;;;3.71;100.00
75008;BME280;63554;48.940;12.050;2023-11-19T08:20:19;97207.19;;;3.75;100.00
75008;BME280;63554;48.940;12.050;2023-11-19T08:24:21;97205.34;;;3.75;100.00
75008;BME280;63554;48.940;12.050;2023-11-19T08:28:26;97203.31;;;3.78;100.00
75008;BME280;63554;48.940;12.050;2023-11-19T08:32:29;97194.81;;;3.74;100.00
75008;BME280;63554;48.940;12.050;2023-11-19T08:36:32;97197.88;;;3.71;100.00
75008;BME280;63554;48.940;12.050;2023-11-19T08:40:34;97202.00;;;3.73;100.00
75008;BME280;63554;48.940;12.050;2023-11-19T08:44:40;97206.00;;;3.78;100.00
75008;BME280;63554;48.940;12.050;2023-11-19T08:48:45;97207.41;;;3.88;100.00
75008;BME280;63554;48.940;12.050;2023-11-19T08:52:48;97205.00;;;3.93;100.00
75008;BME280;63554;48.940;12.050;2023-11-19T08:56:53;97194.78;;;3.97;100.00
75008;BME280;63554;48.940;12.050;2023-11-19T09:00:57;97194.44;;;4.00;100.00
75008;BME280;63554;48.940;12.050;2023-11-19T09:05:00;97196.06;;;4.01;100.00
75008;BME280;63554;48.940;12.050;2023-11-19T09:09:03;97201.28;;;4.18;100.00
75008;BME280;63554;48.940;12.050;2023-11-19T09:13:07;97208.50;;;4.32;100.00
75008;BME280;63554;48.940;12.050;2023-11-19T09:17:11;97205.63;;;4.48;100.00
75008;BME280;63554;48.940;12.050;2023-11-19T09:21:14;97191.13;;;4.58;100.00
75008;BME280;63554;48.940;12.050;2023-11-19T09:25:16;97204.72;;;4.71;100.00
75008;BME280;63554;48.940;12.050;2023-11-19T09:29:19;97199.34;;;4.71;100.00
75008;BME280;63554;48.940;12.050;2023-11-19T09:33:24;97194.16;;;4.69;100.00
75008;BME280;63554;48.940;12.050;2023-11-19T09:37:28;97205.72;;;4.70;100.00
75008;BME280;63554;48.940;12.050;2023-11-19T09:41:32;97198.13;;;4.73;100.00
75008;BME280;63554;48.940;12.050;2023-11-19T09:45:47;97192.00;;;4.94;100.00
75008;BME280;63554;48.940;12.050;2023-11-19T09:49:52;97178.63;;;5.16;100.00
75008;BME280;63554;48.940;12.050;2023-11-19T09:53:58;97176.97;;;5.37;100.00
75008;BME280;63554;48.940;12.050;2023-11-19T09:58:01;97166.50;;;5.63;100.00
75008;BME280;63554;48.940;12.050;2023-11-19T10:02:04;97156.53;;;5.79;100.00
75008;BME280;63554;48.940;12.050;2023-11-19T10:06:10;97159.44;;;6.05;100.00
75008;BME280;63554;48.940;12.050;2023-11-19T10:10:13;97165.78;;;6.26;100.00
75008;BME280;63554;48.940;12.050;2023-11-19T10:14:23;97163.91;;;6.61;100.00
75008;BME280;63554;48.940;12.050;2023-11-19T10:18:26;97160.50;;;6.81;100.00
75008;BME280;63554;48.940;12.050;2023-11-19T10:22:30;97156.19;;;7.00;100.00
75008;BME280;63554;48.940;12.050;2023-11-19T10:26:36;97155.25;;;7.27;100.00
75008;BME280;63554;48.940;12.050;2023-11-19T10:30:41;97155.09;;;7.49;100.00
75008;BME280;63554;48.940;12.050;2023-11-19T10:34:44;97151.41;;;7.90;100.00
75008;BME280;63554;48.940;12.050;2023-11-19T10:38:55;97144.06;;;8.37;100.00
75008;BME280;63554;48.940;12.050;2023-11-19T10:43:02;97148.84;;;8.55;100.00
75008;BME280;63554;48.940;12.050;2023-11-19T10:47:06;97127.84;;;8.64;100.00
75008;BME280;63554;48.940;12.050;2023-11-19T10:51:11;97128.00;;;8.76;100.00
75008;BME280;63554;48.940;12.050;2023-11-19T10:55:21;97136.44;;;8.93;100.00
75008;BME280;63554;48.940;12.050;2023-11-19T10:59:31;97116.88;;;9.04;100.00
75008;BME280;63554;48.940;12.050;2023-11-19T11:03:39;97125.13;;;9.16;100.00
75008;BME280;63554;48.940;12.050;2023-11-19T11:07:44;97117.44;;;9.19;100.00
75008;BME280;63554;48.940;12.050;2023-11-19T11:11:49;97114.06;;;9.24;100.00
75008;BME280;63554;48.940;12.050;2023-11-19T11:15:53;97122.13;;;9.30;100.00
75008;BME280;63554;48.940;12.050;2023-11-19T11:19:58;97115.63;;;9.38;100.00
75008;BME280;63554;48.940;12.050;2023-11-19T11:28:40;97117.38;;;10.08;100.00
75008;BME280;63554;48.940;12.050;2023-11-19T11:32:53;97107.00;;;10.05;100.00
75008;BME280;63554;48.940;12.050;2023-11-19T11:37:05;97101.56;;;10.48;100.00
75008;BME280;63554;48.940;12.050;2023-11-19T11:41:15;97110.38;;;10.44;100.00
75008;BME280;63554;48.940;12.050;2023-11-19T11:45:35;97107.28;;;10.40;100.00
75008;BME280;63554;48.940;12.050;2023-11-19T11:49:39;97094.22;;;10.37;100.00
75008;BME280;63554;48.940;12.050;2023-11-19T11:53:42;97117.88;;;10.42;100.00
75008;BME280;63554;48.940;12.050;2023-11-19T11:57:45;97110.00;;;10.40;100.00
75008;BME280;63554;48.940;12.050;2023-11-19T12:01:58;97096.69;;;10.39;100.00
75008;BME280;63554;48.940;12.050;2023-11-19T12:06:01;97095.28;;;10.36;100.00
75008;BME280;63554;48.940;12.050;2023-11-19T12:10:06;97101.28;;;10.38;100.00
75008;BME280;63554;48.940;12.050;2023-11-19T12:14:10;97101.81;;;10.47;100.00
75008;BME280;63554;48.940;12.050;2023-11-19T12:18:18;97095.50;;;10.53;100.00
75008;BME280;63554;48.940;12.050;2023-11-19T12:22:24;97088.50;;;10.64;100.00
75008;BME280;63554;48.940;12.050;2023-11-19T12:26:31;97085.31;;;10.85;100.00
75008;BME280;63554;48.940;12.050;2023-11-19T12:30:34;97059.22;;;11.99;100.00
75008;BME280;63554;48.940;12.050;2023-11-19T12:34:39;97049.88;;;11.71;100.00
75008;BME280;63554;48.940;12.050;2023-11-19T12:38:41;97051.69;;;12.13;100.00
75008;BME280;63554;48.940;12.050;2023-11-19T12:42:47;97044.69;;;11.58;100.00
75008;BME280;63554;48.940;12.050;2023-11-19T12:47:01;97047.53;;;11.75;100.00
75008;BME280;63554;48.940;12.050;2023-11-19T12:51:06;97031.50;;;11.85;100.00
75008;BME280;63554;48.940;12.050;2023-11-19T12:55:24;97035.81;;;12.57;100.00
75008;BME280;63554;48.940;12.050;2023-11-19T12:59:31;97035.06;;;13.02;95.89
75008;BME280;63554;48.940;12.050;2023-11-19T13:03:35;97026.19;;;12.25;100.00
75008;BME280;63554;48.940;12.050;2023-11-19T13:07:41;97038.25;;;12.58;100.00
75008;BME280;63554;48.940;12.050;2023-11-19T13:11:44;97024.19;;;13.02;97.98
75008;BME280;63554;48.940;12.050;2023-11-19T13:15:47;97026.34;;;13.17;95.92
75008;BME280;63554;48.940;12.050;2023-11-19T13:19:51;97022.00;;;13.16;96.19
75008;BME280;63554;48.940;12.050;2023-11-19T13:23:55;97009.03;;;12.77;98.82
75008;BME280;63554;48.940;12.050;2023-11-19T13:27:59;97011.09;;;12.70;99.73
75008;BME280;63554;48.940;12.050;2023-11-19T13:32:03;97004.91;;;13.49;94.62
75008;BME280;63554;48.940;12.050;2023-11-19T13:36:08;96998.34;;;13.16;94.08
75008;BME280;63554;48.940;12.050;2023-11-19T13:40:17;96996.34;;;13.40;91.38
75008;BME280;63554;48.940;12.050;2023-11-19T13:44:21;96988.84;;;13.31;92.05
75008;BME280;63554;48.940;12.050;2023-11-19T13:48:24;96997.81;;;13.82;89.23
75008;BME280;63554;48.940;12.050;2023-11-19T13:52:28;96995.28;;;13.58;87.62
75008;BME280;63554;48.940;12.050;2023-11-19T13:56:32;96972.97;;;12.94;90.54
75008;BME280;63554;48.940;12.050;2023-11-19T14:00:35;96975.19;;;12.68;94.55
75008;BME280;63554;48.940;12.050;2023-11-19T14:04:39;96986.13;;;12.16;95.44
75008;BME280;63554;48.940;12.050;2023-11-19T14:08:42;96990.25;;;11.95;96.65
75008;BME280;63554;48.940;12.050;2023-11-19T14:12:47;96986.56;;;12.24;94.41
75008;BME280;63554;48.940;12.050;2023-11-19T14:16:51;96998.28;;;11.90;95.83
75008;BME280;63554;48.940;12.050;2023-11-19T14:20:54;97002.63;;;11.55;97.50
75008;BME280;63554;48.940;12.050;2023-11-19T14:24:56;96989.63;;;11.34;98.90
75008;BME280;63554;48.940;12.050;2023-11-19T14:29:01;96982.78;;;11.19;98.87
75008;BME280;63554;48.940;12.050;2023-11-19T14:33:04;96989.47;;;11.17;99.20
75008;BME280;63554;48.940;12.050;2023-11-19T14:37:07;96991.22;;;11.11;98.33
75008;BME280;63554;48.940;12.050;2023-11-19T14:41:10;96996.31;;;11.07;98.86
75008;BME280;63554;48.940;12.050;2023-11-19T14:45:14;97008.63;;;11.03;99.27
75008;BME280;63554;48.940;12.050;2023-11-19T14:49:17;97001.06;;;10.94;100.00
75008;BME280;63554;48.940;12.050;2023-11-19T14:53:19;96997.44;;;10.88;100.00
75008;BME280;63554;48.940;12.050;2023-11-19T14:57:22;96999.84;;;10.78;99.93
75008;BME280;63554;48.940;12.050;2023-11-19T15:01:26;97007.63;;;10.74;99.63
75008;BME280;63554;48.940;12.050;2023-11-19T15:05:30;96986.84;;;10.68;99.27
75008;BME280;63554;48.940;12.050;2023-11-19T15:09:33;96994.16;;;10.67;98.29
75008;BME280;63554;48.940;12.050;2023-11-19T15:13:38;96985.22;;;10.67;97.93
75008;BME280;63554;48.940;12.050;2023-11-19T15:17:44;96988.88;;;10.73;96.51
75008;BME280;63554;48.940;12.050;2023-11-19T15:21:47;96980.19;;;10.71;96.74
75008;BME280;63554;48.940;12.050;2023-11-19T15:25:50;96972.22;;;10.57;97.48
75008;BME280;63554;48.940;12.050;2023-11-19T15:29:53;96972.56;;;10.49;97.85
75008;BME280;63554;48.940;12.050;2023-11-19T15:33:57;96967.47;;;10.41;98.30
75008;BME280;63554;48.940;12.050;2023-11-19T15:38:00;96966.50;;;10.35;98.66
75008;BME280;63554;48.940;12.050;2023-11-19T15:42:03;96972.16;;;10.27;98.70
75008;BME280;63554;48.940;12.050;2023-11-19T15:46:07;96980.25;;;10.34;100.00
75008;BME280;63554;48.940;12.050;2023-11-19T15:50:11;96984.16;;;10.68;96.14
75008;BME280;63554;48.940;12.050;2023-11-19T15:54:14;96990.50;;;10.92;95.62
75008;BME280;63554;48.940;12.050;2023-11-19T15:58:17;97002.13;;;10.93;95.81
75008;BME280;63554;48.940;12.050;2023-11-19T16:02:20;97004.69;;;10.87;96.58
75008;BME280;63554;48.940;12.050;2023-11-19T16:06:24;97000.47;;;10.92;99.44
75008;BME280;63554;48.940;12.050;2023-11-19T16:10:27;97008.88;;;11.02;100.00
75008;BME280;63554;48.940;12.050;2023-11-19T16:14:31;97011.69;;;11.07;100.00
75008;BME280;63554;48.940;12.050;2023-11-19T16:18:34;97018.22;;;11.18;98.99
75008;BME280;63554;48.940;12.050;2023-11-19T16:22:38;97029.09;;;10.99;97.54
75008;BME280;63554;48.940;12.050;2023-11-19T16:26:40;97028.03;;;10.88;100.00
75008;BME280;63554;48.940;12.050;2023-11-19T16:30:43;97019.31;;;10.68;99.47
75008;BME280;63554;48.940;12.050;2023-11-19T16:34:46;97022.91;;;10.50;98.70
75008;BME280;63554;48.940;12.050;2023-11-19T16:38:51;97031.75;;;10.57;96.93
75008;BME280;63554;48.940;12.050;2023-11-19T16:42:53;97024.03;;;10.42;98.08
75008;BME280;63554;48.940;12.050;2023-11-19T16:46:56;97034.84;;;10.24;99.99
75008;BME280;63554;48.940;12.050;2023-11-19T16:50:59;97027.09;;;9.90;96.94
75008;BME280;63554;48.940;12.050;2023-11-19T16:55:06;97021.00;;;9.52;98.04
75008;BME280;63554;48.940;12.050;2023-11-19T16:59:13;97019.59;;;9.17;100.00
75008;BME280;63554;48.940;12.050;2023-11-19T17:03:16;97024.13;;;8.91;100.00
75008;BME280;63554;48.940;12.050;2023-11-19T17:07:19;97037.53;;;8.73;100.00
75008;BME280;63554;48.940;12.050;2023-11-19T17:11:23;97038.00;;;8.63;100.00
75008;BME280;63554;48.940;12.050;2023-11-19T17:15:26;97044.25;;;8.57;100.00
75008;BME280;63554;48.940;12.050;2023-11-19T17:19:29;97052.56;;;8.56;100.00
75008;BME280;63554;48.940;12.050;2023-11-19T17:23:32;97050.06;;;8.54;100.00
75008;BME280;63554;48.940;12.050;2023-11-19T17:27:36;97054.44;;;8.48;100.00
75008;BME280;63554;48.940;12.050;2023-11-19T17:31:40;97059.00;;;8.48;100.00
75008;BME280;63554;48.940;12.050;2023-11-19T17:35:45;97063.81;;;8.39;100.00
75008;BME280;63554;48.940;12.050;2023-11-19T17:39:48;97069.41;;;8.31;100.00
75008;BME280;63554;48.940;12.050;2023-11-19T17:43:52;97076.50;;;8.25;100.00
75008;BME280;63554;48.940;12.050;2023-11-19T17:47:55;97076.94;;;8.16;100.00
75008;BME280;63554;48.940;12.050;2023-11-19T17:51:58;97066.97;;;8.09;100.00
75008;BME280;63554;48.940;12.050;2023-11-19T17:56:00;97079.44;;;8.10;100.00
75008;BME280;63554;48.940;12.050;2023-11-19T18:00:07;97054.97;;;8.05;100.00
75008;BME280;63554;48.940;12.050;2023-11-19T18:04:14;97056.66;;;8.00;100.00
75008;BME280;63554;48.940;12.050;2023-11-19T18:08:17;97057.09;;;7.90;100.00
75008;BME280;63554;48.940;12.050;2023-11-19T18:12:23;97068.91;;;7.89;100.00
75008;BME280;63554;48.940;12.050;2023-11-19T18:16:27;97070.75;;;7.95;100.00
75008;BME280;63554;48.940;12.050;2023-11-19T18:20:30;97077.56;;;7.98;100.00
75008;BME280;63554;48.940;12.050;2023-11-19T18:24:32;97067.44;;;8.00;100.00
75008;BME280;63554;48.940;12.050;2023-11-19T18:28:37;97073.22;;;7.97;100.00
75008;BME280;63554;48.940;12.050;2023-11-19T18:32:42;97066.78;;;7.98;100.00
75008;BME280;63554;48.940;12.050;2023-11-19T18:36:46;97050.66;;;7.91;100.00
75008;BME280;63554;48.940;12.050;2023-11-19T18:40:49;97079.06;;;7.87;100.00
75008;BME280;63554;48.940;12.050;2023-11-19T18:44:52;97084.44;;;7.87;100.00
75008;BME280;63554;48.940;12.050;2023-11-19T18:48:56;97104.34;;;7.92;100.00
75008;BME280;63554;48.940;12.050;2023-11-19T18:53:01;97093.94;;;8.03;100.00
75008;BME280;63554;48.940;12.050;2023-11-19T18:57:05;97105.13;;;8.13;100.00
75008;BME280;63554;48.940;12.050;2023-11-19T19:01:08;97105.31;;;8.18;100.00
75008;BME280;63554;48.940;12.050;2023-11-19T19:05:14;97111.34;;;8.20;100.00
75008;BME280;63554;48.940;12.050;2023-11-19T19:09:18;97096.56;;;8.49;100.00
75008;BME280;63554;48.940;12.050;2023-11-19T19:13:21;97083.81;;;8.70;100.00
75008;BME280;63554;48.940;12.050;2023-11-19T19:17:24;97085.78;;;8.95;100.00
75008;BME280;63554;48.940;12.050;2023-11-19T19:21:30;97101.91;;;9.08;100.00
75008;BME280;63554;48.940;12.050;2023-11-19T19:25:33;97103.13;;;9.12;98.09
75008;BME280;63554;48.940;12.050;2023-11-19T19:29:36;97115.28;;;8.89;97.14
75008;BME280;63554;48.940;12.050;2023-11-19T19:33:39;97109.16;;;8.69;97.73
75008;BME280;63554;48.940;12.050;2023-11-19T19:37:44;97112.09;;;8.61;98.35
75008;BME280;63554;48.940;12.050;2023-11-19T19:41:47;97117.69;;;8.52;98.13
75008;BME280;63554;48.940;12.050;2023-11-19T19:45:50;97111.28;;;8.54;98.42
75008;BME280;63554;48.940;12.050;2023-11-19T19:49:52;97118.56;;;8.46;99.53
75008;BME280;63554;48.940;12.050;2023-11-19T19:53:56;97126.47;;;8.41;100.00
75008;BME280;63554;48.940;12.050;2023-11-19T19:57:59;97121.91;;;8.35;100.00
75008;BME280;63554;48.940;12.050;2023-11-19T20:02:03;97112.94;;;8.35;100.00
75008;BME280;63554;48.940;12.050;2023-11-19T20:06:06;97107.16;;;8.31;100.00
75008;BME280;63554;48.940;12.050;2023-11-19T20:10:14;97099.09;;;8.24;100.00
75008;BME280;63554;48.940;12.050;2023-11-19T20:14:17;97114.25;;;8.19;100.00
75008;BME280;63554;48.940;12.050;2023-11-19T20:18:24;97124.81;;;8.20;100.00
75008;BME280;63554;48.940;12.050;2023-11-19T20:22:30;97141.56;;;8.29;100.00
75008;BME280;63554;48.940;12.050;2023-11-19T20:26:37;97132.88;;;8.34;100.00
75008;BME280;63554;48.940;12.050;2023-11-19T20:30:41;97147.38;;;8.32;100.00
75008;BME280;63554;48.940;12.050;2023-11-19T20:34:44;97135.16;;;8.30;100.00
75008;BME280;63554;48.940;12.050;2023-11-19T20:38:47;97136.34;;;8.67;98.26
75008;BME280;63554;48.940;12.050;2023-11-19T20:42:51;97142.34;;;8.76;98.56
75008;BME280;63554;48.940;12.050;2023-11-19T20:46:54;97152.28;;;8.82;97.93
75008;BME280;63554;48.940;12.050;2023-11-19T20:50:57;97146.88;;;8.82;98.27
75008;BME280;63554;48.940;12.050;2023-11-19T20:55:00;97160.75;;;8.86;98.41
75008;BME280;63554;48.940;12.050;2023-11-19T20:59:06;97139.41;;;8.84;98.83
75008;BME280;63554;48.940;12.050;2023-11-19T21:03:09;97158.91;;;8.80;99.78
75008;BME280;63554;48.940;12.050;2023-11-19T21:07:12;97164.34;;;8.73;100.00
75008;BME280;63554;48.940;12.050;2023-11-19T21:11:15;97166.22;;;8.73;100.00
75008;BME280;63554;48.940;12.050;2023-11-19T21:15:19;97152.94;;;8.71;100.00
75008;BME280;63554;48.940;12.050;2023-11-19T21:19:22;97165.41;;;8.65;100.00
75008;BME280;63554;48.940;12.050;2023-11-19T21:23:46;97155.88;;;8.56;100.00